sensor_id;sensor_type;location;lat;lon;timestamp;pressure;altitude;pressure_sealevel;temperature;humidity
18533;BME280;9396;51.510;11.934;2023-03-04T00:02:14;101109.84;;;1.09;100.00
18533;BME280;9396;51.510;11.934;2023-03-04T00:04:41;101104.28;;;0.98;100.00
18533;BME280;9396;51.510;11.934;2023-03-04T00:07:07;101100.38;;;1.07;100.00
18533;BME280;9396;51.510;11.934;2023-03-04T00:09:34;101099.28;;;1.11;100.00
18533;BME280;9396;51.510;11.934;2023-03-04T00:12:01;101103.84;;;1.25;100.00
18533;BME280;9396;51.510;11.934;2023-03-04T00:14:29;101097.38;;;1.32;100.00
18533;BME280;9396;51.510;11.934;2023-03-04T00:16:55;101101.53;;;1.19;100.00
18533;BME280;9396;51.510;11.934;2023-03-04T00:19:22;101102.75;;;1.29;100.00
18533;BME280;9396;51.510;11.934;2023-03-04T00:21:49;101098.31;;;1.14;100.00
18533;BME280;9396;51.510;11.934;2023-03-04T00:24:15;101101.38;;;1.22;100.00
18533;BME280;9396;51.510;11.934;2023-03-04T00:26:42;101100.22;;;1.10;100.00
18533;BME280;9396;51.510;11.934;2023-03-04T00:29:10;101105.31;;;1.13;100.00
18533;BME280;9396;51.510;11.934;2023-03-04T00:31:38;101096.28;;;1.19;100.00
18533;BME280;9396;51.510;11.934;2023-03-04T00:34:05;101104.84;;;1.22;100.00
18533;BME280;9396;51.510;11.934;2023-03-04T00:36:32;101092.84;;;1.01;100.00
18533;BME280;9396;51.510;11.934;2023-03-04T00:38:58;101091.91;;;1.02;100.00
18533;BME280;9396;51.510;11.934;2023-03-04T00:41:25;101093.44;;;1.23;100.00
18533;BME280;9396;51.510;11.934;2023-03-04T00:43:51;101083.50;;;1.13;100.00
18533;BME280;9396;51.510;11.934;2023-03-04T00:46:18;101084.53;;;1.10;100.00
18533;BME280;9396;51.510;11.934;2023-03-04T00:48:46;101079.72;;;1.18;100.00
18533;BME280;9396;51.510;11.934;2023-03-04T00:51:13;101072.31;;;1.09;100.00
18533;BME280;9396;51.510;11.934;2023-03-04T00:53:39;101066.03;;;1.13;100.00
18533;BME280;9396;51.510;11.934;2023-03-04T00:56:06;101065.00;;;0.98;100.00
18533;BME280;9396;51.510;11.934;2023-03-04T00:58:33;101063.69;;;1.07;100.00
18533;BME280;9396;51.510;11.934;2023-03-04T01:00:59;101061.16;;;1.05;100.00
18533;BME280;9396;51.510;11.934;2023-03-04T01:03:26;101062.06;;;1.22;100.00
18533;BME280;9396;51.510;11.934;2023-03-04T01:05:57;101062.47;;;1.14;100.00
18533;BME280;9396;51.510;11.934;2023-03-04T01:08:24;101063.53;;;1.27;100.00
18533;BME280;9396;51.510;11.934;2023-03-04T01:10:51;101056.53;;;1.28;100.00
18533;BME280;9396;51.510;11.934;2023-03-04T01:13:17;101051.25;;;1.45;100.00
18533;BME280;9396;51.510;11.934;2023-03-04T01:15:44;100967.22;;;0.82;100.00
18533;BME280;9396;51.510;11.934;2023-03-04T01:18:11;101050.44;;;1.27;100.00
18533;BME280;9396;51.510;11.934;2023-03-04T01:20:37;101058.94;;;1.15;100.00
18533;BME280;9396;51.510;11.934;2023-03-04T01:23:05;101050.38;;;0.94;100.00
18533;BME280;9396;51.510;11.934;2023-03-04T01:25:32;101052.31;;;1.08;100.00
18533;BME280;9396;51.510;11.934;2023-03-04T01:27:59;101042.13;;;1.02;100.00
18533;BME280;9396;51.510;11.934;2023-03-04T01:30:25;101029.03;;;1.02;100.00
18533;BME280;9396;51.510;11.934;2023-03-04T01:32:52;101042.75;;;1.07;100.00
18533;BME280;9396;51.510;11.934;2023-03-04T01:35:19;101037.72;;;1.20;100.00
18533;BME280;9396;51.510;11.934;2023-03-04T01:37:45;101027.88;;;1.25;100.00
18533;BME280;9396;51.510;11.934;2023-03-04T01:40:13;101034.06;;;1.39;100.00
18533;BME280;9396;51.510;11.934;2023-03-04T01:42:40;101016.78;;;1.52;100.00
18533;BME280;9396;51.510;11.934;2023-03-04T01:45:10;101013.31;;;1.52;100.00
18533;BME280;9396;51.510;11.934;2023-03-04T01:47:38;101012.50;;;1.67;100.00
18533;BME280;9396;51.510;11.934;2023-03-04T01:50:11;101002.69;;;1.70;100.00
18533;BME280;9396;51.510;11.934;2023-03-04T01:52:42;101002.69;;;1.55;100.00
18533;BME280;9396;51.510;11.934;2023-03-04T01:55:16;100990.97;;;1.45;100.00
18533;BME280;9396;51.510;11.934;2023-03-04T01:57:43;101003.34;;;1.58;100.00
18533;BME280;9396;51.510;11.934;2023-03-04T02:00:25;100999.50;;;1.48;100.00
18533;BME280;9396;51.510;11.934;2023-03-04T02:02:54;100999.38;;;1.51;100.00
18533;BME280;9396;51.510;11.934;2023-03-04T02:05:21;101008.16;;;1.50;100.00
18533;BME280;9396;51.510;11.934;2023-03-04T02:07:49;100998.69;;;1.48;100.00
18533;BME280;9396;51.510;11.934;2023-03-04T02:10:18;100830.25;;;0.32;100.00
18533;BME280;9396;51.510;11.934;2023-03-04T02:12:45;101001.53;;;1.43;100.00
18533;BME280;9396;51.510;11.934;2023-03-04T02:15:12;101002.13;;;1.48;100.00
18533;BME280;9396;51.510;11.934;2023-03-04T02:17:39;101003.41;;;1.57;100.00
18533;BME280;9396;51.510;11.934;2023-03-04T02:20:14;100991.66;;;1.48;100.00
18533;BME280;9396;51.510;11.934;2023-03-04T02:22:50;100976.13;;;1.61;100.00
18533;BME280;9396;51.510;11.934;2023-03-04T02:25:26;100976.47;;;1.70;100.00
18533;BME280;9396;51.510;11.934;2023-03-04T02:27:55;100974.63;;;1.72;100.00
18533;BME280;9396;51.510;11.934;2023-03-04T02:30:23;100977.06;;;1.60;100.00
18533;BME280;9396;51.510;11.934;2023-03-04T02:32:50;100973.84;;;1.55;100.00
18533;BME280;9396;51.510;11.934;2023-03-04T02:35:19;100968.59;;;1.70;100.00
18533;BME280;9396;51.510;11.934;2023-03-04T02:37:46;100965.78;;;1.89;100.00
18533;BME280;9396;51.510;11.934;2023-03-04T02:40:16;100962.94;;;1.78;100.00
18533;BME280;9396;51.510;11.934;2023-03-04T02:42:46;100963.25;;;1.87;100.00
18533;BME280;9396;51.510;11.934;2023-03-04T02:45:37;100960.22;;;1.79;100.00
18533;BME280;9396;51.510;11.934;2023-03-04T02:48:04;100956.69;;;1.65;100.00
18533;BME280;9396;51.510;11.934;2023-03-04T02:50:33;100953.97;;;1.66;100.00
18533;BME280;9396;51.510;11.934;2023-03-04T02:53:01;100954.22;;;1.77;100.00
18533;BME280;9396;51.510;11.934;2023-03-04T02:55:27;100947.03;;;1.81;100.00
18533;BME280;9396;51.510;11.934;2023-03-04T02:57:54;100946.53;;;1.90;100.00
18533;BME280;9396;51.510;11.934;2023-03-04T03:00:21;100950.25;;;1.86;100.00
18533;BME280;9396;51.510;11.934;2023-03-04T03:02:49;100945.50;;;1.92;100.00
18533;BME280;9396;51.510;11.934;2023-03-04T03:05:16;100932.66;;;1.88;100.00
18533;BME280;9396;51.510;11.934;2023-03-04T03:07:43;100945.41;;;1.78;100.00
18533;BME280;9396;51.510;11.934;2023-03-04T03:10:10;100940.63;;;1.71;100.00
18533;BME280;9396;51.510;11.934;2023-03-04T03:12:37;100950.75;;;1.77;100.00
18533;BME280;9396;51.510;11.934;2023-03-04T03:15:04;100943.63;;;1.94;100.00
18533;BME280;9396;51.510;11.934;2023-03-04T03:17:31;100946.94;;;2.13;100.00
18533;BME280;9396;51.510;11.934;2023-03-04T03:19:59;100935.16;;;2.21;100.00
18533;BME280;9396;51.510;11.934;2023-03-04T03:22:26;100937.81;;;2.35;100.00
18533;BME280;9396;51.510;11.934;2023-03-04T03:24:53;100938.59;;;2.37;100.00
18533;BME280;9396;51.510;11.934;2023-03-04T03:27:19;100940.63;;;2.16;100.00
18533;BME280;9396;51.510;11.934;2023-03-04T03:29:46;100931.94;;;2.00;100.00
18533;BME280;9396;51.510;11.934;2023-03-04T03:32:12;100929.16;;;1.87;100.00
18533;BME280;9396;51.510;11.934;2023-03-04T03:34:39;100924.25;;;1.97;100.00
18533;BME280;9396;51.510;11.934;2023-03-04T03:37:07;100919.78;;;1.99;100.00
18533;BME280;9396;51.510;11.934;2023-03-04T03:39:34;100921.31;;;1.87;100.00
18533;BME280;9396;51.510;11.934;2023-03-04T03:42:00;100924.50;;;1.92;100.00
18533;BME280;9396;51.510;11.934;2023-03-04T03:44:27;100927.50;;;1.86;100.00
18533;BME280;9396;51.510;11.934;2023-03-04T03:46:54;100915.66;;;1.79;100.00
18533;BME280;9396;51.510;11.934;2023-03-04T03:49:20;100922.06;;;1.89;100.00
18533;BME280;9396;51.510;11.934;2023-03-04T03:51:47;100922.72;;;2.08;100.00
18533;BME280;9396;51.510;11.934;2023-03-04T03:54:15;100913.50;;;2.01;100.00
18533;BME280;9396;51.510;11.934;2023-03-04T03:56:42;100911.66;;;1.88;100.00
18533;BME280;9396;51.510;11.934;2023-03-04T03:59:08;100913.97;;;1.94;100.00
18533;BME280;9396;51.510;11.934;2023-03-04T04:01:35;100916.13;;;2.01;100.00
18533;BME280;9396;51.510;11.934;2023-03-04T04:04:02;100917.41;;;1.94;100.00
18533;BME280;9396;51.510;11.934;2023-03-04T04:06:29;100907.53;;;1.84;100.00
18533;BME280;9396;51.510;11.934;2023-03-04T04:08:55;100912.84;;;1.82;100.00
18533;BME280;9396;51.510;11.934;2023-03-04T04:11:23;100918.53;;;1.75;100.00
18533;BME280;9396;51.510;11.934;2023-03-04T04:13:50;100915.28;;;1.85;100.00
18533;BME280;9396;51.510;11.934;2023-03-04T04:16:17;100917.25;;;1.82;100.00
18533;BME280;9396;51.510;11.934;2023-03-04T04:18:43;100921.72;;;1.95;100.00
18533;BME280;9396;51.510;11.934;2023-03-04T04:21:10;100922.78;;;2.07;100.00
18533;BME280;9396;51.510;11.934;2023-03-04T04:23:37;100922.50;;;1.97;100.00
18533;BME280;9396;51.510;11.934;2023-03-04T04:26:04;100918.75;;;2.01;100.00
18533;BME280;9396;51.510;11.934;2023-03-04T04:28:32;100911.16;;;1.97;100.00
18533;BME280;9396;51.510;11.934;2023-03-04T04:30:58;100909.00;;;2.03;100.00
18533;BME280;9396;51.510;11.934;2023-03-04T04:33:25;100923.84;;;2.04;100.00
18533;BME280;9396;51.510;11.934;2023-03-04T04:35:52;100916.22;;;2.00;100.00
18533;BME280;9396;51.510;11.934;2023-03-04T04:38:19;100921.56;;;2.28;100.00
18533;BME280;9396;51.510;11.934;2023-03-04T04:40:45;100913.41;;;2.18;100.00
18533;BME280;9396;51.510;11.934;2023-03-04T04:43:12;100916.50;;;2.25;100.00
18533;BME280;9396;51.510;11.934;2023-03-04T04:45:40;100909.53;;;2.10;100.00
18533;BME280;9396;51.510;11.934;2023-03-04T04:48:07;100911.63;;;2.03;100.00
18533;BME280;9396;51.510;11.934;2023-03-04T04:50:33;100907.56;;;2.13;100.00
18533;BME280;9396;51.510;11.934;2023-03-04T04:53:00;100921.28;;;2.03;100.00
18533;BME280;9396;51.510;11.934;2023-03-04T04:55:27;100907.28;;;2.18;100.00
18533;BME280;9396;51.510;11.934;2023-03-04T04:57:53;100904.63;;;2.04;100.00
18533;BME280;9396;51.510;11.934;2023-03-04T05:00:20;100895.13;;;2.01;100.00
18533;BME280;9396;51.510;11.934;2023-03-04T05:02:48;100897.19;;;1.96;100.00
18533;BME280;9396;51.510;11.934;2023-03-04T05:05:15;100896.47;;;2.08;100.00
18533;BME280;9396;51.510;11.934;2023-03-04T05:07:42;100894.38;;;1.99;100.00
18533;BME280;9396;51.510;11.934;2023-03-04T05:10:09;100895.03;;;2.18;100.00
18533;BME280;9396;51.510;11.934;2023-03-04T05:12:36;100883.97;;;2.13;100.00
18533;BME280;9396;51.510;11.934;2023-03-04T05:15:03;100890.69;;;2.17;100.00
18533;BME280;9396;51.510;11.934;2023-03-04T05:17:30;100882.94;;;2.30;100.00
18533;BME280;9396;51.510;11.934;2023-03-04T05:19:58;100883.81;;;2.31;100.00
18533;BME280;9396;51.510;11.934;2023-03-04T05:22:24;100889.94;;;2.15;100.00
18533;BME280;9396;51.510;11.934;2023-03-04T05:24:51;100888.44;;;2.11;100.00
18533;BME280;9396;51.510;11.934;2023-03-04T05:27:18;100885.63;;;2.14;100.00
18533;BME280;9396;51.510;11.934;2023-03-04T05:29:44;100886.84;;;2.09;100.00
18533;BME280;9396;51.510;11.934;2023-03-04T05:32:11;100878.78;;;2.12;100.00
18533;BME280;9396;51.510;11.934;2023-03-04T05:34:37;100891.66;;;2.16;100.00
18533;BME280;9396;51.510;11.934;2023-03-04T05:37:05;100887.78;;;2.08;100.00
18533;BME280;9396;51.510;11.934;2023-03-04T05:39:32;100885.16;;;2.08;100.00
18533;BME280;9396;51.510;11.934;2023-03-04T05:41:59;100881.00;;;2.04;100.00
18533;BME280;9396;51.510;11.934;2023-03-04T05:44:25;100884.88;;;2.12;100.00
18533;BME280;9396;51.510;11.934;2023-03-04T05:46:52;100884.03;;;2.12;100.00
18533;BME280;9396;51.510;11.934;2023-03-04T05:49:19;100882.28;;;2.27;100.00
18533;BME280;9396;51.510;11.934;2023-03-04T05:51:46;100882.13;;;2.30;100.00
18533;BME280;9396;51.510;11.934;2023-03-04T05:54:14;100884.69;;;2.15;100.00
18533;BME280;9396;51.510;11.934;2023-03-04T05:56:41;100877.41;;;2.21;100.00
18533;BME280;9396;51.510;11.934;2023-03-04T05:59:07;100878.03;;;2.10;100.00
18533;BME280;9396;51.510;11.934;2023-03-04T06:01:34;100875.72;;;2.19;100.00
18533;BME280;9396;51.510;11.934;2023-03-04T06:04:01;100881.16;;;2.16;100.00
18533;BME280;9396;51.510;11.934;2023-03-04T06:06:27;100877.41;;;2.21;100.00
18533;BME280;9396;51.510;11.934;2023-03-04T06:08:54;100889.16;;;2.29;100.00
18533;BME280;9396;51.510;11.934;2023-03-04T06:11:22;100884.16;;;2.25;100.00
18533;BME280;9396;51.510;11.934;2023-03-04T06:13:49;100887.06;;;2.20;100.00
18533;BME280;9396;51.510;11.934;2023-03-04T06:16:15;100889.88;;;2.17;100.00
18533;BME280;9396;51.510;11.934;2023-03-04T06:18:42;100888.50;;;2.26;100.00
18533;BME280;9396;51.510;11.934;2023-03-04T06:21:09;100885.28;;;2.21;100.00
18533;BME280;9396;51.510;11.934;2023-03-04T06:23:35;100887.81;;;2.22;100.00
18533;BME280;9396;51.510;11.934;2023-03-04T06:26:02;100887.19;;;2.33;100.00
18533;BME280;9396;51.510;11.934;2023-03-04T06:28:31;100882.94;;;2.30;100.00
18533;BME280;9396;51.510;11.934;2023-03-04T06:30:58;100893.34;;;2.32;100.00
18533;BME280;9396;51.510;11.934;2023-03-04T06:33:24;100890.56;;;2.35;100.00
18533;BME280;9396;51.510;11.934;2023-03-04T06:35:53;100869.94;;;2.29;100.00
18533;BME280;9396;51.510;11.934;2023-03-04T06:38:20;100899.50;;;2.46;100.00
18533;BME280;9396;51.510;11.934;2023-03-04T06:40:47;100893.97;;;2.37;100.00
18533;BME280;9396;51.510;11.934;2023-03-04T06:43:14;100893.97;;;2.37;100.00
18533;BME280;9396;51.510;11.934;2023-03-04T06:45:42;100897.78;;;2.31;100.00
18533;BME280;9396;51.510;11.934;2023-03-04T06:48:08;100896.84;;;2.32;100.00
18533;BME280;9396;51.510;11.934;2023-03-04T06:50:35;100884.94;;;2.41;100.00
18533;BME280;9396;51.510;11.934;2023-03-04T06:53:02;100892.28;;;2.50;100.00
18533;BME280;9396;51.510;11.934;2023-03-04T06:55:28;100883.75;;;2.46;100.00
18533;BME280;9396;51.510;11.934;2023-03-04T06:57:55;100880.47;;;2.57;100.00
18533;BME280;9396;51.510;11.934;2023-03-04T07:00:22;100898.25;;;2.38;100.00
18533;BME280;9396;51.510;11.934;2023-03-04T07:02:50;100892.38;;;2.48;100.00
18533;BME280;9396;51.510;11.934;2023-03-04T07:05:17;100891.91;;;2.42;100.00
18533;BME280;9396;51.510;11.934;2023-03-04T07:07:44;100885.06;;;2.53;100.00
18533;BME280;9396;51.510;11.934;2023-03-04T07:10:11;100892.19;;;2.51;100.00
18533;BME280;9396;51.510;11.934;2023-03-04T07:12:37;100894.56;;;2.56;100.00
18533;BME280;9396;51.510;11.934;2023-03-04T07:15:05;100878.06;;;2.68;100.00
18533;BME280;9396;51.510;11.934;2023-03-04T07:17:32;100893.59;;;2.57;100.00
18533;BME280;9396;51.510;11.934;2023-03-04T07:20:00;100885.81;;;2.55;100.00
18533;BME280;9396;51.510;11.934;2023-03-04T07:22:27;100884.16;;;2.68;100.00
18533;BME280;9396;51.510;11.934;2023-03-04T07:24:54;100880.59;;;2.69;100.00
18533;BME280;9396;51.510;11.934;2023-03-04T07:27:20;100878.63;;;2.73;100.00
18533;BME280;9396;51.510;11.934;2023-03-04T07:29:47;100890.75;;;2.75;100.00
18533;BME280;9396;51.510;11.934;2023-03-04T07:32:14;100894.13;;;2.77;100.00
18533;BME280;9396;51.510;11.934;2023-03-04T07:34:40;100881.25;;;2.87;100.00
18533;BME280;9396;51.510;11.934;2023-03-04T07:37:08;100900.69;;;2.98;100.00
18533;BME280;9396;51.510;11.934;2023-03-04T07:39:35;100889.53;;;2.95;100.00
18533;BME280;9396;51.510;11.934;2023-03-04T07:42:02;100893.47;;;3.02;100.00
18533;BME280;9396;51.510;11.934;2023-03-04T07:44:28;100899.00;;;2.97;100.00
18533;BME280;9396;51.510;11.934;2023-03-04T07:46:55;100896.94;;;2.88;100.00
18533;BME280;9396;51.510;11.934;2023-03-04T07:49:21;100896.47;;;2.96;100.00
18533;BME280;9396;51.510;11.934;2023-03-04T07:51:48;100882.50;;;2.95;100.00
18533;BME280;9396;51.510;11.934;2023-03-04T07:54:16;100887.75;;;3.09;100.00
18533;BME280;9396;51.510;11.934;2023-03-04T07:56:44;100883.25;;;3.11;100.00
18533;BME280;9396;51.510;11.934;2023-03-04T07:59:11;100877.59;;;3.03;100.00
18533;BME280;9396;51.510;11.934;2023-03-04T08:01:38;100885.78;;;2.99;100.00
18533;BME280;9396;51.510;11.934;2023-03-04T08:04:06;100883.25;;;3.11;100.00
18533;BME280;9396;51.510;11.934;2023-03-04T08:06:33;100882.19;;;3.14;100.00
18533;BME280;9396;51.510;11.934;2023-03-04T08:09:02;100882.19;;;3.14;100.00
18533;BME280;9396;51.510;11.934;2023-03-04T08:11:31;100882.19;;;3.14;100.00
18533;BME280;9396;51.510;11.934;2023-03-04T08:13:58;100882.94;;;3.16;100.00
18533;BME280;9396;51.510;11.934;2023-03-04T08:16:25;100875.81;;;3.18;100.00
18533;BME280;9396;51.510;11.934;2023-03-04T08:18:54;100877.22;;;3.23;100.00
18533;BME280;9396;51.510;11.934;2023-03-04T08:21:22;100872.31;;;3.32;100.00
18533;BME280;9396;51.510;11.934;2023-03-04T08:23:49;100871.84;;;3.39;100.00
18533;BME280;9396;51.510;11.934;2023-03-04T08:26:18;100870.97;;;3.39;100.00
18533;BME280;9396;51.510;11.934;2023-03-04T08:28:46;100867.50;;;3.52;100.00
18533;BME280;9396;51.510;11.934;2023-03-04T08:31:14;100878.34;;;3.60;100.00
18533;BME280;9396;51.510;11.934;2023-03-04T08:33:41;100865.69;;;3.53;100.00
18533;BME280;9396;51.510;11.934;2023-03-04T08:36:08;100770.47;;;2.94;100.00
18533;BME280;9396;51.510;11.934;2023-03-04T08:38:35;100866.53;;;3.53;100.00
18533;BME280;9396;51.510;11.934;2023-03-04T08:41:01;100859.09;;;3.60;100.00
18533;BME280;9396;51.510;11.934;2023-03-04T08:43:29;100856.94;;;3.66;100.00
18533;BME280;9396;51.510;11.934;2023-03-04T08:45:58;100859.75;;;3.63;100.00
18533;BME280;9396;51.510;11.934;2023-03-04T08:48:25;100859.91;;;3.74;100.00
18533;BME280;9396;51.510;11.934;2023-03-04T08:50:52;100866.75;;;3.77;100.00
18533;BME280;9396;51.510;11.934;2023-03-04T08:53:19;100867.41;;;3.80;100.00
18533;BME280;9396;51.510;11.934;2023-03-04T08:55:46;100856.06;;;3.92;100.00
18533;BME280;9396;51.510;11.934;2023-03-04T08:58:13;100856.28;;;3.89;100.00
18533;BME280;9396;51.510;11.934;2023-03-04T09:00:42;100848.56;;;3.86;100.00
18533;BME280;9396;51.510;11.934;2023-03-04T09:03:14;100847.06;;;4.09;100.00
18533;BME280;9396;51.510;11.934;2023-03-04T09:05:44;100846.00;;;4.11;100.00
18533;BME280;9396;51.510;11.934;2023-03-04T09:08:11;100838.47;;;4.19;100.00
18533;BME280;9396;51.510;11.934;2023-03-04T09:10:37;100844.38;;;4.23;100.00
18533;BME280;9396;51.510;11.934;2023-03-04T09:13:05;100836.47;;;4.23;100.00
18533;BME280;9396;51.510;11.934;2023-03-04T09:15:32;100842.66;;;4.22;100.00
18533;BME280;9396;51.510;11.934;2023-03-04T09:18:00;100830.59;;;4.32;100.00
18533;BME280;9396;51.510;11.934;2023-03-04T09:20:29;100842.16;;;4.29;100.00
18533;BME280;9396;51.510;11.934;2023-03-04T09:22:56;100833.41;;;4.16;100.00
18533;BME280;9396;51.510;11.934;2023-03-04T09:25:23;100837.22;;;4.25;100.00
18533;BME280;9396;51.510;11.934;2023-03-04T09:27:50;100850.50;;;4.36;100.00
18533;BME280;9396;51.510;11.934;2023-03-04T09:30:17;100840.59;;;4.40;100.00
18533;BME280;9396;51.510;11.934;2023-03-04T09:32:43;100842.41;;;4.52;100.00
18533;BME280;9396;51.510;11.934;2023-03-04T09:35:10;100839.53;;;4.55;100.00
18533;BME280;9396;51.510;11.934;2023-03-04T09:37:39;100840.69;;;4.51;100.00
18533;BME280;9396;51.510;11.934;2023-03-04T09:40:07;100837.31;;;4.49;100.00
18533;BME280;9396;51.510;11.934;2023-03-04T09:42:37;100688.78;;;3.63;100.00
18533;BME280;9396;51.510;11.934;2023-03-04T09:45:07;100832.06;;;4.61;100.00
18533;BME280;9396;51.510;11.934;2023-03-04T09:47:36;100832.50;;;4.68;100.00
18533;BME280;9396;51.510;11.934;2023-03-04T09:50:07;100838.81;;;4.78;100.00
18533;BME280;9396;51.510;11.934;2023-03-04T09:52:50;100832.38;;;4.82;100.00
18533;BME280;9396;51.510;11.934;2023-03-04T09:55:23;100829.41;;;4.86;100.00
18533;BME280;9396;51.510;11.934;2023-03-04T09:57:52;100831.75;;;4.78;100.00
18533;BME280;9396;51.510;11.934;2023-03-04T10:00:24;100833.25;;;4.70;100.00
18533;BME280;9396;51.510;11.934;2023-03-04T10:03:06;100836.63;;;4.59;100.00
18533;BME280;9396;51.510;11.934;2023-03-04T10:05:39;100840.41;;;4.55;100.00
18533;BME280;9396;51.510;11.934;2023-03-04T10:11:00;100834.16;;;4.69;100.00
18533;BME280;9396;51.510;11.934;2023-03-04T10:13:34;100834.59;;;4.75;100.00
18533;BME280;9396;51.510;11.934;2023-03-04T10:16:07;100833.88;;;4.73;100.00
18533;BME280;9396;51.510;11.934;2023-03-04T10:18:37;100825.41;;;4.81;100.00
18533;BME280;9396;51.510;11.934;2023-03-04T10:21:09;100821.19;;;4.91;100.00
18533;BME280;9396;51.510;11.934;2023-03-04T10:23:40;100813.28;;;5.03;100.00
18533;BME280;9396;51.510;11.934;2023-03-04T10:26:11;100809.97;;;5.12;100.00
18533;BME280;9396;51.510;11.934;2023-03-04T10:28:39;100812.03;;;5.20;100.00
18533;BME280;9396;51.510;11.934;2023-03-04T10:31:11;100814.88;;;5.29;100.00
18533;BME280;9396;51.510;11.934;2023-03-04T10:33:40;100811.91;;;5.34;100.00
18533;BME280;9396;51.510;11.934;2023-03-04T10:36:25;100802.38;;;5.44;100.00
18533;BME280;9396;51.510;11.934;2023-03-04T10:38:59;100801.22;;;5.48;100.00
18533;BME280;9396;51.510;11.934;2023-03-04T10:41:29;100814.19;;;5.51;100.00
18533;BME280;9396;51.510;11.934;2023-03-04T10:44:01;100812.78;;;5.58;100.00
18533;BME280;9396;51.510;11.934;2023-03-04T10:46:28;100814.44;;;5.59;100.00
18533;BME280;9396;51.510;11.934;2023-03-04T10:48:55;100817.16;;;5.70;100.00
18533;BME280;9396;51.510;11.934;2023-03-04T10:51:24;100818.69;;;5.85;98.61
18533;BME280;9396;51.510;11.934;2023-03-04T10:53:57;100818.47;;;5.88;95.39
18533;BME280;9396;51.510;11.934;2023-03-04T10:56:31;100815.53;;;5.80;95.39
18533;BME280;9396;51.510;11.934;2023-03-04T10:59:41;100810.13;;;5.82;93.72
18533;BME280;9396;51.510;11.934;2023-03-04T11:02:30;100808.13;;;5.85;94.75
18533;BME280;9396;51.510;11.934;2023-03-04T11:05:09;100804.13;;;5.80;94.76
18533;BME280;9396;51.510;11.934;2023-03-04T11:07:43;100798.53;;;5.84;96.48
18533;BME280;9396;51.510;11.934;2023-03-04T11:10:16;100791.09;;;5.89;96.17
18533;BME280;9396;51.510;11.934;2023-03-04T11:12:47;100789.34;;;6.01;95.29
18533;BME280;9396;51.510;11.934;2023-03-04T11:15:19;100795.69;;;5.98;95.45
18533;BME280;9396;51.510;11.934;2023-03-04T11:17:51;100688.69;;;5.71;100.00
18533;BME280;9396;51.510;11.934;2023-03-04T11:20:27;100789.34;;;6.58;99.89
18533;BME280;9396;51.510;11.934;2023-03-04T11:22:56;100777.31;;;6.53;96.71
18533;BME280;9396;51.510;11.934;2023-03-04T11:25:30;100787.03;;;6.31;94.98
18533;BME280;9396;51.510;11.934;2023-03-04T11:28:01;100787.97;;;6.19;94.91
18533;BME280;9396;51.510;11.934;2023-03-04T11:30:35;100790.94;;;6.14;95.34
18533;BME280;9396;51.510;11.934;2023-03-04T11:33:13;100786.88;;;6.10;94.96
18533;BME280;9396;51.510;11.934;2023-03-04T11:35:47;100794.19;;;6.07;94.93
18533;BME280;9396;51.510;11.934;2023-03-04T11:38:18;100794.38;;;6.04;96.08
18533;BME280;9396;51.510;11.934;2023-03-04T11:40:50;100793.22;;;6.08;96.12
18533;BME280;9396;51.510;11.934;2023-03-04T11:43:21;100784.69;;;6.04;95.88
18533;BME280;9396;51.510;11.934;2023-03-04T11:46:04;100780.25;;;6.05;96.03
18533;BME280;9396;51.510;11.934;2023-03-04T11:48:44;100782.28;;;6.12;96.37
18533;BME280;9396;51.510;11.934;2023-03-04T11:51:20;100770.34;;;6.19;96.08
18533;BME280;9396;51.510;11.934;2023-03-04T11:54:03;100771.28;;;6.18;96.32
18533;BME280;9396;51.510;11.934;2023-03-04T11:56:36;100763.59;;;6.15;96.31
18533;BME280;9396;51.510;11.934;2023-03-04T11:59:23;100770.53;;;6.16;95.99
18533;BME280;9396;51.510;11.934;2023-03-04T12:02:09;100767.03;;;6.16;96.75
18533;BME280;9396;51.510;11.934;2023-03-04T12:04:48;100774.19;;;6.26;97.29
18533;BME280;9396;51.510;11.934;2023-03-04T12:07:35;100761.47;;;6.31;97.29
18533;BME280;9396;51.510;11.934;2023-03-04T12:10:12;100740.88;;;6.13;95.84
18533;BME280;9396;51.510;11.934;2023-03-04T12:12:56;100757.34;;;6.16;95.25
18533;BME280;9396;51.510;11.934;2023-03-04T12:15:32;100760.34;;;6.12;96.68
18533;BME280;9396;51.510;11.934;2023-03-04T12:18:15;100746.16;;;6.13;97.25
18533;BME280;9396;51.510;11.934;2023-03-04T12:20:55;100744.63;;;6.21;96.68
18533;BME280;9396;51.510;11.934;2023-03-04T12:23:43;100745.94;;;6.27;97.48
18533;BME280;9396;51.510;11.934;2023-03-04T12:26:23;100743.56;;;6.24;98.47
18533;BME280;9396;51.510;11.934;2023-03-04T12:28:56;100750.75;;;6.22;100.00
18533;BME280;9396;51.510;11.934;2023-03-04T12:31:44;100745.59;;;6.20;100.00
18533;BME280;9396;51.510;11.934;2023-03-04T12:34:37;100739.47;;;6.31;100.00
18533;BME280;9396;51.510;11.934;2023-03-04T12:40:15;100736.94;;;6.51;96.86
18533;BME280;9396;51.510;11.934;2023-03-04T12:42:59;100731.69;;;6.74;97.64
18533;BME280;9396;51.510;11.934;2023-03-04T12:45:36;100727.81;;;6.89;96.73
18533;BME280;9396;51.510;11.934;2023-03-04T12:48:13;100727.22;;;6.85;94.71
18533;BME280;9396;51.510;11.934;2023-03-04T12:50:52;100726.50;;;6.83;92.83
18533;BME280;9396;51.510;11.934;2023-03-04T12:53:27;100708.13;;;6.82;92.21
18533;BME280;9396;51.510;11.934;2023-03-04T12:55:56;100646.41;;;6.49;92.86
18533;BME280;9396;51.510;11.934;2023-03-04T12:58:25;100709.31;;;6.89;90.80
18533;BME280;9396;51.510;11.934;2023-03-04T13:01:01;100711.47;;;6.84;90.88
18533;BME280;9396;51.510;11.934;2023-03-04T13:03:37;100710.06;;;6.80;89.73
18533;BME280;9396;51.510;11.934;2023-03-04T13:06:17;100714.63;;;6.78;89.72
18533;BME280;9396;51.510;11.934;2023-03-04T13:08:55;100706.22;;;6.73;91.32
18533;BME280;9396;51.510;11.934;2023-03-04T13:11:49;100715.22;;;6.70;91.76